sensor_id;sensor_type;location;lat;lon;timestamp;P1;durP1;ratioP1;P2;durP2;ratioP2
15635;SDS011;7917;50.818;6.972;2023-09-19T00:00:31;8.07;;;2.30;;
15635;SDS011;7917;50.818;6.972;2023-09-19T00:02:59;6.00;;;2.30;;
15635;SDS011;7917;50.818;6.972;2023-09-19T00:05:26;3.83;;;2.17;;
15635;SDS011;7917;50.818;6.972;2023-09-19T00:07:57;4.38;;;1.92;;
15635;SDS011;7917;50.818;6.972;2023-09-19T00:10:24;5.60;;;2.33;;
15635;SDS011;7917;50.818;6.972;2023-09-19T00:12:52;8.65;;;2.00;;
15635;SDS011;7917;50.818;6.972;2023-09-19T00:15:21;4.60;;;2.47;;
15635;SDS011;7917;50.818;6.972;2023-09-19T00:17:47;5.53;;;1.95;;
15635;SDS011;7917;50.818;6.972;2023-09-19T00:20:17;5.95;;;2.08;;
15635;SDS011;7917;50.818;6.972;2023-09-19T00:22:44;5.95;;;2.17;;
15635;SDS011;7917;50.818;6.972;2023-09-19T00:25:11;8.38;;;2.38;;
15635;SDS011;7917;50.818;6.972;2023-09-19T00:27:38;8.40;;;2.45;;
15635;SDS011;7917;50.818;6.972;2023-09-19T00:30:08;4.38;;;2.00;;
15635;SDS011;7917;50.818;6.972;2023-09-19T00:32:39;4.40;;;1.88;;
15635;SDS011;7917;50.818;6.972;2023-09-19T00:35:06;4.30;;;2.08;;
15635;SDS011;7917;50.818;6.972;2023-09-19T00:37:34;5.93;;;2.00;;
15635;SDS011;7917;50.818;6.972;2023-09-19T00:40:02;5.05;;;2.33;;
15635;SDS011;7917;50.818;6.972;2023-09-19T00:42:29;5.53;;;2.00;;
15635;SDS011;7917;50.818;6.972;2023-09-19T00:44:57;5.20;;;1.88;;
15635;SDS011;7917;50.818;6.972;2023-09-19T00:47:23;5.80;;;2.17;;
15635;SDS011;7917;50.818;6.972;2023-09-19T00:49:50;3.65;;;1.80;;
15635;SDS011;7917;50.818;6.972;2023-09-19T00:52:19;6.63;;;1.92;;
15635;SDS011;7917;50.818;6.972;2023-09-19T00:54:45;6.13;;;2.17;;
15635;SDS011;7917;50.818;6.972;2023-09-19T00:57:13;4.60;;;1.83;;
15635;SDS011;7917;50.818;6.972;2023-09-19T00:59:41;9.40;;;2.28;;
15635;SDS011;7917;50.818;6.972;2023-09-19T01:02:08;6.22;;;2.05;;
15635;SDS011;7917;50.818;6.972;2023-09-19T01:04:34;5.25;;;2.25;;
15635;SDS011;7917;50.818;6.972;2023-09-19T01:07:05;5.30;;;2.03;;
15635;SDS011;7917;50.818;6.972;2023-09-19T01:09:33;10.35;;;2.78;;
15635;SDS011;7917;50.818;6.972;2023-09-19T01:12:00;7.30;;;2.60;;
15635;SDS011;7917;50.818;6.972;2023-09-19T01:14:34;7.03;;;2.00;;
15635;SDS011;7917;50.818;6.972;2023-09-19T01:17:09;10.13;;;1.85;;
15635;SDS011;7917;50.818;6.972;2023-09-19T01:20:03;9.43;;;2.03;;
15635;SDS011;7917;50.818;6.972;2023-09-19T01:22:42;5.93;;;1.63;;
15635;SDS011;7917;50.818;6.972;2023-09-19T01:25:34;4.32;;;1.95;;
15635;SDS011;7917;50.818;6.972;2023-09-19T01:28:30;6.45;;;1.95;;
15635;SDS011;7917;50.818;6.972;2023-09-19T01:31:02;6.28;;;1.80;;
15635;SDS011;7917;50.818;6.972;2023-09-19T01:36:25;6.57;;;1.85;;
15635;SDS011;7917;50.818;6.972;2023-09-19T01:38:54;6.35;;;2.17;;
15635;SDS011;7917;50.818;6.972;2023-09-19T01:41:26;11.25;;;2.30;;
15635;SDS011;7917;50.818;6.972;2023-09-19T01:43:58;4.70;;;1.98;;
15635;SDS011;7917;50.818;6.972;2023-09-19T01:46:30;11.20;;;2.22;;
15635;SDS011;7917;50.818;6.972;2023-09-19T01:49:06;5.38;;;2.00;;
15635;SDS011;7917;50.818;6.972;2023-09-19T01:51:48;8.75;;;1.95;;
15635;SDS011;7917;50.818;6.972;2023-09-19T01:54:27;9.07;;;2.80;;
15635;SDS011;7917;50.818;6.972;2023-09-19T01:56:59;10.15;;;2.30;;
15635;SDS011;7917;50.818;6.972;2023-09-19T01:59:34;10.70;;;3.00;;
15635;SDS011;7917;50.818;6.972;2023-09-19T02:02:06;6.97;;;2.10;;
15635;SDS011;7917;50.818;6.972;2023-09-19T02:04:33;5.97;;;2.22;;
15635;SDS011;7917;50.818;6.972;2023-09-19T02:07:01;8.25;;;2.42;;
15635;SDS011;7917;50.818;6.972;2023-09-19T02:09:30;11.20;;;2.30;;
15635;SDS011;7917;50.818;6.972;2023-09-19T02:12:00;14.20;;;2.13;;
15635;SDS011;7917;50.818;6.972;2023-09-19T02:14:27;7.15;;;2.40;;
15635;SDS011;7917;50.818;6.972;2023-09-19T02:16:54;6.07;;;2.03;;
15635;SDS011;7917;50.818;6.972;2023-09-19T02:19:23;11.82;;;2.78;;
15635;SDS011;7917;50.818;6.972;2023-09-19T02:21:50;8.30;;;2.50;;
15635;SDS011;7917;50.818;6.972;2023-09-19T02:24:16;8.73;;;2.33;;
15635;SDS011;7917;50.818;6.972;2023-09-19T02:26:42;9.40;;;2.60;;
15635;SDS011;7917;50.818;6.972;2023-09-19T02:29:09;7.70;;;2.38;;
15635;SDS011;7917;50.818;6.972;2023-09-19T02:31:38;9.35;;;2.05;;
15635;SDS011;7917;50.818;6.972;2023-09-19T02:34:04;10.80;;;2.90;;
15635;SDS011;7917;50.818;6.972;2023-09-19T02:36:34;6.18;;;2.20;;
15635;SDS011;7917;50.818;6.972;2023-09-19T02:39:01;7.85;;;2.45;;
15635;SDS011;7917;50.818;6.972;2023-09-19T02:41:30;14.05;;;3.22;;
15635;SDS011;7917;50.818;6.972;2023-09-19T02:43:58;12.48;;;2.20;;
15635;SDS011;7917;50.818;6.972;2023-09-19T02:46:24;9.85;;;3.33;;
15635;SDS011;7917;50.818;6.972;2023-09-19T02:48:51;7.68;;;2.60;;
15635;SDS011;7917;50.818;6.972;2023-09-19T02:51:21;10.57;;;2.42;;
15635;SDS011;7917;50.818;6.972;2023-09-19T02:53:49;15.32;;;2.85;;
15635;SDS011;7917;50.818;6.972;2023-09-19T02:56:17;10.30;;;2.40;;
15635;SDS011;7917;50.818;6.972;2023-09-19T02:58:44;9.98;;;2.50;;
15635;SDS011;7917;50.818;6.972;2023-09-19T03:04:33;14.40;;;3.55;;
15635;SDS011;7917;50.818;6.972;2023-09-19T03:07:00;10.23;;;2.58;;
15635;SDS011;7917;50.818;6.972;2023-09-19T03:09:30;8.60;;;2.72;;
15635;SDS011;7917;50.818;6.972;2023-09-19T03:11:56;14.27;;;2.33;;
15635;SDS011;7917;50.818;6.972;2023-09-19T03:14:24;9.10;;;3.63;;
15635;SDS011;7917;50.818;6.972;2023-09-19T03:16:56;11.95;;;2.88;;
15635;SDS011;7917;50.818;6.972;2023-09-19T03:19:22;10.13;;;2.58;;
15635;SDS011;7917;50.818;6.972;2023-09-19T03:21:51;8.68;;;2.78;;
15635;SDS011;7917;50.818;6.972;2023-09-19T03:24:18;10.10;;;2.25;;
15635;SDS011;7917;50.818;6.972;2023-09-19T03:26:45;15.43;;;2.60;;
15635;SDS011;7917;50.818;6.972;2023-09-19T03:29:13;6.70;;;2.60;;
15635;SDS011;7917;50.818;6.972;2023-09-19T03:31:42;10.50;;;2.33;;
15635;SDS011;7917;50.818;6.972;2023-09-19T03:34:09;13.05;;;3.20;;
15635;SDS011;7917;50.818;6.972;2023-09-19T03:36:37;12.10;;;2.90;;
15635;SDS011;7917;50.818;6.972;2023-09-19T03:39:04;16.50;;;2.75;;
15635;SDS011;7917;50.818;6.972;2023-09-19T03:41:30;10.43;;;2.47;;
15635;SDS011;7917;50.818;6.972;2023-09-19T03:43:59;14.32;;;2.60;;
15635;SDS011;7917;50.818;6.972;2023-09-19T03:46:27;12.00;;;3.15;;
15635;SDS011;7917;50.818;6.972;2023-09-19T03:48:54;9.27;;;2.40;;
15635;SDS011;7917;50.818;6.972;2023-09-19T03:51:20;13.70;;;3.28;;
15635;SDS011;7917;50.818;6.972;2023-09-19T03:53:47;12.30;;;2.35;;
15635;SDS011;7917;50.818;6.972;2023-09-19T03:56:15;11.40;;;2.40;;
15635;SDS011;7917;50.818;6.972;2023-09-19T03:58:44;8.57;;;2.50;;
15635;SDS011;7917;50.818;6.972;2023-09-19T04:01:12;11.15;;;3.25;;
15635;SDS011;7917;50.818;6.972;2023-09-19T04:03:38;11.63;;;2.50;;
15635;SDS011;7917;50.818;6.972;2023-09-19T04:06:12;10.88;;;2.97;;
15635;SDS011;7917;50.818;6.972;2023-09-19T04:08:39;10.43;;;2.35;;
15635;SDS011;7917;50.818;6.972;2023-09-19T04:11:06;11.77;;;2.63;;
15635;SDS011;7917;50.818;6.972;2023-09-19T04:13:32;12.20;;;2.60;;
15635;SDS011;7917;50.818;6.972;2023-09-19T04:15:59;13.35;;;3.67;;
15635;SDS011;7917;50.818;6.972;2023-09-19T04:18:26;16.02;;;3.20;;
15635;SDS011;7917;50.818;6.972;2023-09-19T04:20:53;11.95;;;3.67;;
15635;SDS011;7917;50.818;6.972;2023-09-19T04:23:19;11.90;;;3.10;;
15635;SDS011;7917;50.818;6.972;2023-09-19T04:25:46;11.13;;;2.78;;
15635;SDS011;7917;50.818;6.972;2023-09-19T04:28:13;9.73;;;2.60;;
15635;SDS011;7917;50.818;6.972;2023-09-19T04:30:40;10.45;;;2.55;;
15635;SDS011;7917;50.818;6.972;2023-09-19T04:33:07;9.75;;;2.70;;
15635;SDS011;7917;50.818;6.972;2023-09-19T04:35:35;9.27;;;2.33;;
15635;SDS011;7917;50.818;6.972;2023-09-19T04:38:04;10.55;;;2.60;;
15635;SDS011;7917;50.818;6.972;2023-09-19T04:40:32;8.32;;;2.50;;
15635;SDS011;7917;50.818;6.972;2023-09-19T04:42:59;12.98;;;2.50;;
15635;SDS011;7917;50.818;6.972;2023-09-19T04:45:26;14.68;;;2.85;;
15635;SDS011;7917;50.818;6.972;2023-09-19T04:47:53;9.88;;;3.00;;
15635;SDS011;7917;50.818;6.972;2023-09-19T04:50:21;9.40;;;2.40;;
15635;SDS011;7917;50.818;6.972;2023-09-19T04:52:49;15.13;;;3.15;;
15635;SDS011;7917;50.818;6.972;2023-09-19T04:55:16;9.00;;;2.60;;
15635;SDS011;7917;50.818;6.972;2023-09-19T04:57:44;11.35;;;2.88;;
15635;SDS011;7917;50.818;6.972;2023-09-19T05:00:11;11.15;;;2.60;;
15635;SDS011;7917;50.818;6.972;2023-09-19T05:02:40;9.88;;;2.50;;
15635;SDS011;7917;50.818;6.972;2023-09-19T05:05:07;10.50;;;3.22;;
15635;SDS011;7917;50.818;6.972;2023-09-19T05:07:35;13.93;;;3.80;;
15635;SDS011;7917;50.818;6.972;2023-09-19T05:10:02;15.48;;;3.35;;
15635;SDS011;7917;50.818;6.972;2023-09-19T05:12:32;8.80;;;3.00;;
15635;SDS011;7917;50.818;6.972;2023-09-19T05:14:59;8.57;;;2.72;;
15635;SDS011;7917;50.818;6.972;2023-09-19T05:17:26;10.90;;;2.55;;
15635;SDS011;7917;50.818;6.972;2023-09-19T05:19:53;9.40;;;2.45;;
15635;SDS011;7917;50.818;6.972;2023-09-19T05:22:19;8.30;;;2.33;;
15635;SDS011;7917;50.818;6.972;2023-09-19T05:24:46;9.38;;;2.88;;
15635;SDS011;7917;50.818;6.972;2023-09-19T05:27:14;7.72;;;2.55;;
15635;SDS011;7917;50.818;6.972;2023-09-19T05:29:42;8.13;;;2.42;;
15635;SDS011;7917;50.818;6.972;2023-09-19T05:32:09;7.25;;;2.45;;
15635;SDS011;7917;50.818;6.972;2023-09-19T05:34:37;6.78;;;2.83;;
15635;SDS011;7917;50.818;6.972;2023-09-19T05:37:04;14.82;;;3.28;;
15635;SDS011;7917;50.818;6.972;2023-09-19T05:39:32;14.90;;;2.63;;
15635;SDS011;7917;50.818;6.972;2023-09-19T05:41:59;11.77;;;2.35;;
15635;SDS011;7917;50.818;6.972;2023-09-19T05:44:26;8.43;;;2.63;;
15635;SDS011;7917;50.818;6.972;2023-09-19T05:46:53;16.02;;;2.72;;
15635;SDS011;7917;50.818;6.972;2023-09-19T05:49:21;12.38;;;3.20;;
15635;SDS011;7917;50.818;6.972;2023-09-19T05:51:49;12.35;;;2.65;;
15635;SDS011;7917;50.818;6.972;2023-09-19T05:54:19;12.40;;;2.65;;
15635;SDS011;7917;50.818;6.972;2023-09-19T05:56:45;8.77;;;2.45;;
15635;SDS011;7917;50.818;6.972;2023-09-19T05:59:15;13.85;;;3.20;;
15635;SDS011;7917;50.818;6.972;2023-09-19T06:01:43;8.70;;;2.25;;
15635;SDS011;7917;50.818;6.972;2023-09-19T06:04:09;4.88;;;2.38;;
15635;SDS011;7917;50.818;6.972;2023-09-19T06:06:36;10.98;;;3.15;;
15635;SDS011;7917;50.818;6.972;2023-09-19T06:09:05;13.77;;;2.75;;
15635;SDS011;7917;50.818;6.972;2023-09-19T06:11:33;15.48;;;2.75;;
15635;SDS011;7917;50.818;6.972;2023-09-19T06:14:01;8.68;;;2.97;;
15635;SDS011;7917;50.818;6.972;2023-09-19T06:16:27;8.60;;;2.63;;
15635;SDS011;7917;50.818;6.972;2023-09-19T06:18:55;11.70;;;2.72;;
15635;SDS011;7917;50.818;6.972;2023-09-19T06:21:22;9.00;;;2.50;;
15635;SDS011;7917;50.818;6.972;2023-09-19T06:23:49;6.28;;;2.72;;
15635;SDS011;7917;50.818;6.972;2023-09-19T06:26:16;12.65;;;2.60;;
15635;SDS011;7917;50.818;6.972;2023-09-19T06:28:45;12.70;;;3.00;;
15635;SDS011;7917;50.818;6.972;2023-09-19T06:31:12;10.52;;;3.17;;
15635;SDS011;7917;50.818;6.972;2023-09-19T06:33:39;11.75;;;2.47;;
15635;SDS011;7917;50.818;6.972;2023-09-19T06:36:07;13.25;;;2.45;;
15635;SDS011;7917;50.818;6.972;2023-09-19T06:38:34;16.27;;;3.13;;
15635;SDS011;7917;50.818;6.972;2023-09-19T06:41:01;11.98;;;2.67;;
15635;SDS011;7917;50.818;6.972;2023-09-19T06:43:31;10.38;;;2.80;;
15635;SDS011;7917;50.818;6.972;2023-09-19T06:45:59;9.43;;;2.58;;
15635;SDS011;7917;50.818;6.972;2023-09-19T06:48:29;10.05;;;2.20;;
15635;SDS011;7917;50.818;6.972;2023-09-19T06:50:56;9.48;;;2.90;;
15635;SDS011;7917;50.818;6.972;2023-09-19T06:53:24;8.73;;;2.50;;
15635;SDS011;7917;50.818;6.972;2023-09-19T06:55:51;7.15;;;2.35;;
15635;SDS011;7917;50.818;6.972;2023-09-19T06:58:21;12.40;;;2.70;;
15635;SDS011;7917;50.818;6.972;2023-09-19T07:00:48;8.75;;;2.38;;
15635;SDS011;7917;50.818;6.972;2023-09-19T07:03:15;9.55;;;2.33;;
15635;SDS011;7917;50.818;6.972;2023-09-19T07:05:44;12.07;;;3.25;;
15635;SDS011;7917;50.818;6.972;2023-09-19T07:08:13;12.52;;;2.55;;
15635;SDS011;7917;50.818;6.972;2023-09-19T07:10:41;9.23;;;2.95;;
15635;SDS011;7917;50.818;6.972;2023-09-19T07:13:14;6.57;;;2.05;;
15635;SDS011;7917;50.818;6.972;2023-09-19T07:15:42;11.95;;;3.53;;
15635;SDS011;7917;50.818;6.972;2023-09-19T07:18:12;8.88;;;2.50;;
15635;SDS011;7917;50.818;6.972;2023-09-19T07:20:40;13.77;;;3.65;;
15635;SDS011;7917;50.818;6.972;2023-09-19T07:23:10;13.77;;;3.25;;
15635;SDS011;7917;50.818;6.972;2023-09-19T07:25:39;16.50;;;3.00;;
15635;SDS011;7917;50.818;6.972;2023-09-19T07:28:06;15.20;;;3.00;;
15635;SDS011;7917;50.818;6.972;2023-09-19T07:30:35;13.68;;;3.50;;
15635;SDS011;7917;50.818;6.972;2023-09-19T07:33:04;13.68;;;4.00;;
15635;SDS011;7917;50.818;6.972;2023-09-19T07:35:32;13.02;;;2.97;;
15635;SDS011;7917;50.818;6.972;2023-09-19T07:37:59;18.23;;;3.85;;
15635;SDS011;7917;50.818;6.972;2023-09-19T07:40:27;11.38;;;3.20;;
15635;SDS011;7917;50.818;6.972;2023-09-19T07:42:55;10.88;;;2.67;;
15635;SDS011;7917;50.818;6.972;2023-09-19T07:45:23;12.32;;;2.78;;
15635;SDS011;7917;50.818;6.972;2023-09-19T07:47:50;11.57;;;2.50;;
15635;SDS011;7917;50.818;6.972;2023-09-19T07:50:18;13.55;;;2.40;;
15635;SDS011;7917;50.818;6.972;2023-09-19T07:52:45;7.28;;;2.40;;
15635;SDS011;7917;50.818;6.972;2023-09-19T07:55:12;9.07;;;3.05;;
15635;SDS011;7917;50.818;6.972;2023-09-19T07:57:42;10.52;;;2.45;;
15635;SDS011;7917;50.818;6.972;2023-09-19T08:00:13;12.63;;;2.63;;
15635;SDS011;7917;50.818;6.972;2023-09-19T08:02:41;14.90;;;2.80;;
15635;SDS011;7917;50.818;6.972;2023-09-19T08:05:09;10.77;;;2.33;;
15635;SDS011;7917;50.818;6.972;2023-09-19T08:07:36;9.38;;;2.75;;
15635;SDS011;7917;50.818;6.972;2023-09-19T08:10:05;11.13;;;3.15;;
15635;SDS011;7917;50.818;6.972;2023-09-19T08:12:33;15.95;;;3.20;;
15635;SDS011;7917;50.818;6.972;2023-09-19T08:15:01;12.00;;;3.17;;
15635;SDS011;7917;50.818;6.972;2023-09-19T08:17:28;16.33;;;3.15;;
15635;SDS011;7917;50.818;6.972;2023-09-19T08:19:55;9.93;;;2.30;;
15635;SDS011;7917;50.818;6.972;2023-09-19T08:22:22;8.43;;;1.92;;
15635;SDS011;7917;50.818;6.972;2023-09-19T08:24:50;7.40;;;2.58;;
15635;SDS011;7917;50.818;6.972;2023-09-19T08:27:16;13.85;;;2.80;;
15635;SDS011;7917;50.818;6.972;2023-09-19T08:29:47;7.65;;;2.50;;
15635;SDS011;7917;50.818;6.972;2023-09-19T08:32:15;5.90;;;2.40;;
15635;SDS011;7917;50.818;6.972;2023-09-19T08:34:43;8.18;;;2.72;;
15635;SDS011;7917;50.818;6.972;2023-09-19T08:37:11;8.15;;;2.33;;
15635;SDS011;7917;50.818;6.972;2023-09-19T08:39:37;16.05;;;3.10;;
15635;SDS011;7917;50.818;6.972;2023-09-19T08:42:04;6.13;;;2.13;;
15635;SDS011;7917;50.818;6.972;2023-09-19T08:44:35;8.00;;;2.80;;
15635;SDS011;7917;50.818;6.972;2023-09-19T08:47:08;9.13;;;2.53;;
15635;SDS011;7917;50.818;6.972;2023-09-19T08:49:38;11.55;;;2.47;;
15635;SDS011;7917;50.818;6.972;2023-09-19T08:52:25;11.32;;;2.38;;
15635;SDS011;7917;50.818;6.972;2023-09-19T08:54:55;8.85;;;2.53;;
15635;SDS011;7917;50.818;6.972;2023-09-19T08:57:29;8.10;;;2.28;;
15635;SDS011;7917;50.818;6.972;2023-09-19T09:00:05;8.30;;;2.38;;
15635;SDS011;7917;50.818;6.972;2023-09-19T09:02:35;8.50;;;2.53;;
15635;SDS011;7917;50.818;6.972;2023-09-19T09:05:05;8.27;;;2.90;;
15635;SDS011;7917;50.818;6.972;2023-09-19T09:07:39;8.20;;;2.45;;
15635;SDS011;7917;50.818;6.972;2023-09-19T09:10:07;7.85;;;2.60;;
15635;SDS011;7917;50.818;6.972;2023-09-19T09:12:35;8.50;;;2.95;;
15635;SDS011;7917;50.818;6.972;2023-09-19T09:15:08;7.85;;;1.98;;
15635;SDS011;7917;50.818;6.972;2023-09-19T09:17:37;7.97;;;2.15;;
15635;SDS011;7917;50.818;6.972;2023-09-19T09:20:05;8.13;;;2.75;;
15635;SDS011;7917;50.818;6.972;2023-09-19T09:22:38;8.43;;;2.72;;
15635;SDS011;7917;50.818;6.972;2023-09-19T09:25:16;8.77;;;2.40;;
15635;SDS011;7917;50.818;6.972;2023-09-19T09:27:43;10.35;;;2.97;;
15635;SDS011;7917;50.818;6.972;2023-09-19T09:30:12;3.58;;;1.77;;
15635;SDS011;7917;50.818;6.972;2023-09-19T09:33:07;8.32;;;2.25;;
15635;SDS011;7917;50.818;6.972;2023-09-19T09:35:36;7.88;;;1.75;;
15635;SDS011;7917;50.818;6.972;2023-09-19T09:38:07;11.10;;;2.22;;
15635;SDS011;7917;50.818;6.972;2023-09-19T09:40:45;7.97;;;2.42;;
15635;SDS011;7917;50.818;6.972;2023-09-19T09:43:24;5.38;;;2.03;;
15635;SDS011;7917;50.818;6.972;2023-09-19T09:46:06;7.20;;;2.08;;
15635;SDS011;7917;50.818;6.972;2023-09-19T09:48:44;6.50;;;1.70;;
15635;SDS011;7917;50.818;6.972;2023-09-19T09:51:29;6.75;;;2.00;;
15635;SDS011;7917;50.818;6.972;2023-09-19T09:54:09;5.28;;;1.80;;
15635;SDS011;7917;50.818;6.972;2023-09-19T09:56:41;6.63;;;2.45;;
15635;SDS011;7917;50.818;6.972;2023-09-19T09:59:19;7.43;;;2.30;;
15635;SDS011;7917;50.818;6.972;2023-09-19T10:01:49;10.80;;;1.98;;
15635;SDS011;7917;50.818;6.972;2023-09-19T10:04:26;5.88;;;2.40;;
15635;SDS011;7917;50.818;6.972;2023-09-19T10:06:58;9.18;;;2.50;;
15635;SDS011;7917;50.818;6.972;2023-09-19T10:09:45;8.40;;;1.90;;
15635;SDS011;7917;50.818;6.972;2023-09-19T10:12:15;6.85;;;2.10;;
15635;SDS011;7917;50.818;6.972;2023-09-19T10:14:45;6.88;;;2.20;;
15635;SDS011;7917;50.818;6.972;2023-09-19T10:17:13;8.98;;;2.03;;
15635;SDS011;7917;50.818;6.972;2023-09-19T10:19:46;5.18;;;1.55;;
15635;SDS011;7917;50.818;6.972;2023-09-19T10:22:22;6.43;;;2.42;;
15635;SDS011;7917;50.818;6.972;2023-09-19T10:24:56;6.60;;;2.33;;
15635;SDS011;7917;50.818;6.972;2023-09-19T10:27:25;9.07;;;2.38;;
15635;SDS011;7917;50.818;6.972;2023-09-19T10:29:54;6.18;;;2.03;;
15635;SDS011;7917;50.818;6.972;2023-09-19T10:32:25;5.25;;;2.13;;
15635;SDS011;7917;50.818;6.972;2023-09-19T10:34:53;6.70;;;2.20;;
15635;SDS011;7917;50.818;6.972;2023-09-19T10:37:24;6.93;;;2.95;;
15635;SDS011;7917;50.818;6.972;2023-09-19T10:39:53;7.55;;;2.22;;
15635;SDS011;7917;50.818;6.972;2023-09-19T10:42:23;6.72;;;1.90;;
15635;SDS011;7917;50.818;6.972;2023-09-19T10:44:58;6.85;;;1.88;;
15635;SDS011;7917;50.818;6.972;2023-09-19T10:47:33;5.00;;;2.13;;
15635;SDS011;7917;50.818;6.972;2023-09-19T10:50:02;5.93;;;2.13;;
15635;SDS011;7917;50.818;6.972;2023-09-19T10:52:32;5.82;;;1.83;;
15635;SDS011;7917;50.818;6.972;2023-09-19T10:55:05;6.47;;;2.03;;
15635;SDS011;7917;50.818;6.972;2023-09-19T10:57:35;7.82;;;1.63;;
15635;SDS011;7917;50.818;6.972;2023-09-19T11:00:03;6.30;;;1.90;;
15635;SDS011;7917;50.818;6.972;2023-09-19T11:11:48;4.50;;;1.90;;
15635;SDS011;7917;50.818;6.972;2023-09-19T11:14:32;6.90;;;1.48;;
15635;SDS011;7917;50.818;6.972;2023-09-19T11:23:18;6.90;;;2.28;;
15635;SDS011;7917;50.818;6.972;2023-09-19T11:25:49;6.13;;;1.95;;
15635;SDS011;7917;50.818;6.972;2023-09-19T11:28:27;6.00;;;2.20;;
15635;SDS011;7917;50.818;6.972;2023-09-19T11:31:00;7.15;;;2.38;;
15635;SDS011;7917;50.818;6.972;2023-09-19T11:40:35;9.75;;;2.17;;
15635;SDS011;7917;50.818;6.972;2023-09-19T11:46:06;5.47;;;1.92;;
15635;SDS011;7917;50.818;6.972;2023-09-19T11:48:34;6.65;;;1.90;;
15635;SDS011;7917;50.818;6.972;2023-09-19T11:51:10;3.72;;;1.80;;
15635;SDS011;7917;50.818;6.972;2023-09-19T11:53:44;6.40;;;1.33;;
15635;SDS011;7917;50.818;6.972;2023-09-19T11:56:14;6.65;;;2.00;;
15635;SDS011;7917;50.818;6.972;2023-09-19T11:58:43;6.97;;;2.50;;
15635;SDS011;7917;50.818;6.972;2023-09-19T12:01:21;4.72;;;1.77;;
15635;SDS011;7917;50.818;6.972;2023-09-19T12:03:52;3.42;;;1.85;;
15635;SDS011;7917;50.818;6.972;2023-09-19T12:06:22;4.05;;;1.85;;
15635;SDS011;7917;50.818;6.972;2023-09-19T12:08:49;4.60;;;2.00;;
15635;SDS011;7917;50.818;6.972;2023-09-19T12:11:19;5.82;;;1.88;;
15635;SDS011;7917;50.818;6.972;2023-09-19T12:13:48;7.40;;;1.95;;
15635;SDS011;7917;50.818;6.972;2023-09-19T12:16:19;4.95;;;1.90;;
15635;SDS011;7917;50.818;6.972;2023-09-19T12:18:50;5.75;;;1.83;;
15635;SDS011;7917;50.818;6.972;2023-09-19T12:21:23;5.50;;;2.00;;
15635;SDS011;7917;50.818;6.972;2023-09-19T12:24:05;7.18;;;2.15;;
15635;SDS011;7917;50.818;6.972;2023-09-19T12:26:39;5.80;;;1.88;;
15635;SDS011;7917;50.818;6.972;2023-09-19T12:29:14;6.68;;;1.90;;
15635;SDS011;7917;50.818;6.972;2023-09-19T12:31:50;5.25;;;1.65;;
15635;SDS011;7917;50.818;6.972;2023-09-19T12:34:21;8.77;;;1.73;;
15635;SDS011;7917;50.818;6.972;2023-09-19T12:36:48;7.65;;;1.88;;
15635;SDS011;7917;50.818;6.972;2023-09-19T12:39:31;5.53;;;1.58;;
15635;SDS011;7917;50.818;6.972;2023-09-19T12:42:01;4.90;;;1.70;;
15635;SDS011;7917;50.818;6.972;2023-09-19T12:44:29;5.03;;;1.85;;
15635;SDS011;7917;50.818;6.972;2023-09-19T12:47:04;5.97;;;2.22;;
15635;SDS011;7917;50.818;6.972;2023-09-19T12:49:35;5.00;;;1.70;;
15635;SDS011;7917;50.818;6.972;2023-09-19T12:52:22;4.32;;;1.80;;
15635;SDS011;7917;50.818;6.972;2023-09-19T12:54:51;7.15;;;1.70;;
15635;SDS011;7917;50.818;6.972;2023-09-19T12:57:23;6.70;;;2.13;;
15635;SDS011;7917;50.818;6.972;2023-09-19T12:59:52;4.65;;;1.77;;
15635;SDS011;7917;50.818;6.972;2023-09-19T13:02:22;4.10;;;1.50;;
15635;SDS011;7917;50.818;6.972;2023-09-19T13:04:54;3.40;;;1.52;;
15635;SDS011;7917;50.818;6.972;2023-09-19T13:07:40;6.35;;;1.23;;
15635;SDS011;7917;50.818;6.972;2023-09-19T13:10:11;4.13;;;1.10;;
15635;SDS011;7917;50.818;6.972;2023-09-19T13:12:42;6.07;;;1.60;;
15635;SDS011;7917;50.818;6.972;2023-09-19T13:15:13;4.32;;;1.27;;
15635;SDS011;7917;50.818;6.972;2023-09-19T13:17:46;6.28;;;1.90;;
15635;SDS011;7917;50.818;6.972;2023-09-19T13:20:23;5.63;;;1.90;;
15635;SDS011;7917;50.818;6.972;2023-09-19T13:22:53;5.35;;;1.65;;
15635;SDS011;7917;50.818;6.972;2023-09-19T13:25:21;2.53;;;0.82;;
15635;SDS011;7917;50.818;6.972;2023-09-19T13:27:49;4.70;;;1.40;;
15635;SDS011;7917;50.818;6.972;2023-09-19T13:30:17;7.38;;;1.35;;
15635;SDS011;7917;50.818;6.972;2023-09-19T13:32:45;8.50;;;1.30;;
15635;SDS011;7917;50.818;6.972;2023-09-19T13:35:13;3.05;;;1.08;;
15635;SDS011;7917;50.818;6.972;2023-09-19T13:37:40;1.30;;;0.93;;
15635;SDS011;7917;50.818;6.972;2023-09-19T13:40:10;4.18;;;1.20;;
15635;SDS011;7917;50.818;6.972;2023-09-19T13:42:39;4.43;;;1.20;;
15635;SDS011;7917;50.818;6.972;2023-09-19T13:45:06;2.92;;;1.20;;
15635;SDS011;7917;50.818;6.972;2023-09-19T13:47:37;2.53;;;1.05;;
15635;SDS011;7917;50.818;6.972;2023-09-19T13:50:05;4.72;;;0.90;;
15635;SDS011;7917;50.818;6.972;2023-09-19T13:52:33;3.50;;;1.08;;
15635;SDS011;7917;50.818;6.972;2023-09-19T13:55:00;3.40;;;1.08;;
15635;SDS011;7917;50.818;6.972;2023-09-19T13:57:28;3.08;;;0.95;;
15635;SDS011;7917;50.818;6.972;2023-09-19T13:59:54;4.00;;;1.23;;
15635;SDS011;7917;50.818;6.972;2023-09-19T14:02:21;14.25;;;1.60;;
15635;SDS011;7917;50.818;6.972;2023-09-19T14:04:49;3.50;;;1.50;;
15635;SDS011;7917;50.818;6.972;2023-09-19T14:07:16;3.97;;;1.20;;
15635;SDS011;7917;50.818;6.972;2023-09-19T14:09:45;5.68;;;1.45;;
15635;SDS011;7917;50.818;6.972;2023-09-19T14:12:13;7.15;;;2.05;;
15635;SDS011;7917;50.818;6.972;2023-09-19T14:14:40;9.95;;;1.40;;
15635;SDS011;7917;50.818;6.972;2023-09-19T14:17:08;2.95;;;1.00;;
15635;SDS011;7917;50.818;6.972;2023-09-19T14:19:35;5.00;;;1.02;;
15635;SDS011;7917;50.818;6.972;2023-09-19T14:22:02;4.72;;;0.80;;
15635;SDS011;7917;50.818;6.972;2023-09-19T14:24:33;3.97;;;1.27;;
15635;SDS011;7917;50.818;6.972;2023-09-19T14:27:00;4.18;;;1.00;;
15635;SDS011;7917;50.818;6.972;2023-09-19T14:29:29;3.88;;;0.95;;
15635;SDS011;7917;50.818;6.972;2023-09-19T14:31:56;3.13;;;0.95;;
15635;SDS011;7917;50.818;6.972;2023-09-19T14:34:23;2.88;;;1.20;;
15635;SDS011;7917;50.818;6.972;2023-09-19T14:36:50;4.93;;;0.90;;
15635;SDS011;7917;50.818;6.972;2023-09-19T14:39:16;2.92;;;1.00;;
15635;SDS011;7917;50.818;6.972;2023-09-19T14:41:47;3.67;;;1.00;;
15635;SDS011;7917;50.818;6.972;2023-09-19T14:44:14;4.60;;;1.25;;
15635;SDS011;7917;50.818;6.972;2023-09-19T14:46:41;5.07;;;1.27;;
15635;SDS011;7917;50.818;6.972;2023-09-19T14:49:12;4.28;;;1.45;;
15635;SDS011;7917;50.818;6.972;2023-09-19T14:51:42;5.07;;;1.10;;
15635;SDS011;7917;50.818;6.972;2023-09-19T14:54:10;4.10;;;0.75;;
15635;SDS011;7917;50.818;6.972;2023-09-19T14:56:42;4.47;;;1.27;;
15635;SDS011;7917;50.818;6.972;2023-09-19T14:59:09;4.30;;;1.10;;
15635;SDS011;7917;50.818;6.972;2023-09-19T15:01:36;2.70;;;1.10;;
15635;SDS011;7917;50.818;6.972;2023-09-19T15:04:04;13.98;;;1.20;;
15635;SDS011;7917;50.818;6.972;2023-09-19T15:06:31;2.20;;;0.88;;
15635;SDS011;7917;50.818;6.972;2023-09-19T15:09:01;3.22;;;0.90;;
15635;SDS011;7917;50.818;6.972;2023-09-19T15:11:31;5.00;;;1.15;;
15635;SDS011;7917;50.818;6.972;2023-09-19T15:13:58;3.72;;;0.98;;
15635;SDS011;7917;50.818;6.972;2023-09-19T15:16:25;2.50;;;0.90;;
15635;SDS011;7917;50.818;6.972;2023-09-19T15:18:53;2.13;;;0.90;;
15635;SDS011;7917;50.818;6.972;2023-09-19T15:21:23;3.40;;;0.93;;
15635;SDS011;7917;50.818;6.972;2023-09-19T15:23:50;1.67;;;1.20;;
15635;SDS011;7917;50.818;6.972;2023-09-19T15:26:17;3.17;;;1.40;;
15635;SDS011;7917;50.818;6.972;2023-09-19T15:28:47;3.88;;;1.00;;
15635;SDS011;7917;50.818;6.972;2023-09-19T15:31:14;3.17;;;1.20;;
15635;SDS011;7917;50.818;6.972;2023-09-19T15:33:42;2.38;;;1.17;;
15635;SDS011;7917;50.818;6.972;2023-09-19T15:36:10;2.38;;;1.23;;
15635;SDS011;7917;50.818;6.972;2023-09-19T15:38:56;2.83;;;0.90;;
15635;SDS011;7917;50.818;6.972;2023-09-19T15:41:25;5.97;;;1.10;;
15635;SDS011;7917;50.818;6.972;2023-09-19T15:43:52;4.20;;;1.20;;